sensor_id;sensor_type;location;lat;lon;timestamp;P1;durP1;ratioP1;P2;durP2;ratioP2
43345;SDS011;28937;51.160;4.146;2022-11-15T00:01:34;28.77;;;20.50;;
43345;SDS011;28937;51.160;4.146;2022-11-15T00:04:02;26.42;;;19.55;;
43345;SDS011;28937;51.160;4.146;2022-11-15T00:06:28;24.00;;;19.00;;
43345;SDS011;28937;51.160;4.146;2022-11-15T00:08:54;22.95;;;19.00;;
43345;SDS011;28937;51.160;4.146;2022-11-15T00:11:19;25.58;;;18.95;;
43345;SDS011;28937;51.160;4.146;2022-11-15T00:13:45;25.73;;;18.05;;
43345;SDS011;28937;51.160;4.146;2022-11-15T00:16:10;21.35;;;17.08;;
43345;SDS011;28937;51.160;4.146;2022-11-15T00:18:36;23.33;;;17.65;;
43345;SDS011;28937;51.160;4.146;2022-11-15T00:21:12;24.02;;;17.85;;
43345;SDS011;28937;51.160;4.146;2022-11-15T00:23:38;27.98;;;18.17;;
43345;SDS011;28937;51.160;4.146;2022-11-15T00:26:04;24.65;;;18.45;;
43345;SDS011;28937;51.160;4.146;2022-11-15T00:28:31;20.55;;;17.83;;
43345;SDS011;28937;51.160;4.146;2022-11-15T00:31:00;22.17;;;17.38;;
43345;SDS011;28937;51.160;4.146;2022-11-15T00:33:30;20.35;;;17.42;;
43345;SDS011;28937;51.160;4.146;2022-11-15T00:36:06;20.88;;;17.63;;
43345;SDS011;28937;51.160;4.146;2022-11-15T00:38:34;19.05;;;15.70;;
43345;SDS011;28937;51.160;4.146;2022-11-15T00:41:01;21.40;;;16.80;;
43345;SDS011;28937;51.160;4.146;2022-11-15T00:43:28;19.48;;;17.35;;
43345;SDS011;28937;51.160;4.146;2022-11-15T00:45:53;20.02;;;17.30;;
43345;SDS011;28937;51.160;4.146;2022-11-15T00:48:19;22.27;;;16.83;;
43345;SDS011;28937;51.160;4.146;2022-11-15T00:50:45;21.95;;;16.55;;
43345;SDS011;28937;51.160;4.146;2022-11-15T00:53:10;19.73;;;16.23;;
43345;SDS011;28937;51.160;4.146;2022-11-15T00:55:36;17.38;;;15.35;;
43345;SDS011;28937;51.160;4.146;2022-11-15T00:58:02;21.30;;;15.95;;
43345;SDS011;28937;51.160;4.146;2022-11-15T01:00:28;18.45;;;15.98;;
43345;SDS011;28937;51.160;4.146;2022-11-15T01:02:53;20.92;;;15.73;;
43345;SDS011;28937;51.160;4.146;2022-11-15T01:05:19;18.58;;;15.57;;
43345;SDS011;28937;51.160;4.146;2022-11-15T01:07:44;17.88;;;15.40;;
43345;SDS011;28937;51.160;4.146;2022-11-15T01:10:10;19.42;;;15.60;;
43345;SDS011;28937;51.160;4.146;2022-11-15T01:12:36;19.27;;;15.82;;
43345;SDS011;28937;51.160;4.146;2022-11-15T01:15:02;18.48;;;15.75;;
43345;SDS011;28937;51.160;4.146;2022-11-15T01:17:28;20.08;;;16.08;;
43345;SDS011;28937;51.160;4.146;2022-11-15T01:19:55;18.88;;;15.65;;
43345;SDS011;28937;51.160;4.146;2022-11-15T01:22:21;20.95;;;16.48;;
43345;SDS011;28937;51.160;4.146;2022-11-15T01:24:48;18.00;;;15.88;;
43345;SDS011;28937;51.160;4.146;2022-11-15T01:27:15;19.10;;;15.80;;
43345;SDS011;28937;51.160;4.146;2022-11-15T01:29:40;20.50;;;16.52;;
43345;SDS011;28937;51.160;4.146;2022-11-15T01:32:06;20.35;;;15.20;;
43345;SDS011;28937;51.160;4.146;2022-11-15T01:34:31;19.90;;;15.63;;
43345;SDS011;28937;51.160;4.146;2022-11-15T01:36:57;22.38;;;15.88;;
43345;SDS011;28937;51.160;4.146;2022-11-15T01:39:22;16.42;;;14.25;;
43345;SDS011;28937;51.160;4.146;2022-11-15T01:41:48;20.17;;;16.52;;
43345;SDS011;28937;51.160;4.146;2022-11-15T01:47:23;16.92;;;14.57;;
43345;SDS011;28937;51.160;4.146;2022-11-15T01:50:00;16.70;;;15.07;;
43345;SDS011;28937;51.160;4.146;2022-11-15T01:52:39;19.63;;;16.50;;
43345;SDS011;28937;51.160;4.146;2022-11-15T01:55:19;16.90;;;15.05;;
43345;SDS011;28937;51.160;4.146;2022-11-15T01:57:48;17.33;;;15.10;;
43345;SDS011;28937;51.160;4.146;2022-11-15T02:00:17;17.20;;;14.77;;
43345;SDS011;28937;51.160;4.146;2022-11-15T02:02:43;17.15;;;15.35;;
43345;SDS011;28937;51.160;4.146;2022-11-15T02:05:08;22.52;;;14.95;;
43345;SDS011;28937;51.160;4.146;2022-11-15T02:07:34;16.25;;;14.45;;
43345;SDS011;28937;51.160;4.146;2022-11-15T02:10:08;17.50;;;15.48;;
43345;SDS011;28937;51.160;4.146;2022-11-15T02:12:35;20.42;;;15.95;;
43345;SDS011;28937;51.160;4.146;2022-11-15T02:15:02;18.38;;;14.63;;
43345;SDS011;28937;51.160;4.146;2022-11-15T02:17:37;17.58;;;14.20;;
43345;SDS011;28937;51.160;4.146;2022-11-15T02:39:09;16.85;;;12.95;;
43345;SDS011;28937;51.160;4.146;2022-11-15T02:44:32;14.80;;;13.07;;
43345;SDS011;28937;51.160;4.146;2022-11-15T02:47:07;16.40;;;13.50;;
43345;SDS011;28937;51.160;4.146;2022-11-15T02:49:49;19.83;;;13.68;;
43345;SDS011;28937;51.160;4.146;2022-11-15T02:52:19;20.52;;;13.88;;
43345;SDS011;28937;51.160;4.146;2022-11-15T02:54:56;16.75;;;12.68;;
43345;SDS011;28937;51.160;4.146;2022-11-15T02:57:28;17.17;;;12.68;;
43345;SDS011;28937;51.160;4.146;2022-11-15T03:00:14;16.15;;;12.90;;
43345;SDS011;28937;51.160;4.146;2022-11-15T03:06:00;18.38;;;13.43;;
43345;SDS011;28937;51.160;4.146;2022-11-15T03:08:32;17.60;;;12.88;;
43345;SDS011;28937;51.160;4.146;2022-11-15T03:11:13;17.00;;;12.73;;
43345;SDS011;28937;51.160;4.146;2022-11-15T03:13:46;15.57;;;12.95;;
43345;SDS011;28937;51.160;4.146;2022-11-15T03:16:26;17.13;;;11.88;;
43345;SDS011;28937;51.160;4.146;2022-11-15T03:19:09;16.42;;;12.15;;
43345;SDS011;28937;51.160;4.146;2022-11-15T03:21:39;14.40;;;11.70;;
43345;SDS011;28937;51.160;4.146;2022-11-15T03:24:05;14.00;;;11.60;;
43345;SDS011;28937;51.160;4.146;2022-11-15T03:26:33;15.27;;;11.40;;
43345;SDS011;28937;51.160;4.146;2022-11-15T03:29:06;17.85;;;11.70;;
43345;SDS011;28937;51.160;4.146;2022-11-15T03:31:39;16.73;;;11.60;;
43345;SDS011;28937;51.160;4.146;2022-11-15T03:34:24;12.52;;;10.85;;
43345;SDS011;28937;51.160;4.146;2022-11-15T03:36:56;17.45;;;10.55;;
43345;SDS011;28937;51.160;4.146;2022-11-15T03:39:22;17.17;;;11.45;;
43345;SDS011;28937;51.160;4.146;2022-11-15T03:44:35;15.05;;;10.70;;
43345;SDS011;28937;51.160;4.146;2022-11-15T03:49:58;14.43;;;9.30;;
43345;SDS011;28937;51.160;4.146;2022-11-15T03:52:29;11.65;;;8.63;;
43345;SDS011;28937;51.160;4.146;2022-11-15T03:54:57;14.82;;;8.98;;
43345;SDS011;28937;51.160;4.146;2022-11-15T03:57:29;13.40;;;9.73;;
43345;SDS011;28937;51.160;4.146;2022-11-15T03:59:54;11.50;;;8.95;;
43345;SDS011;28937;51.160;4.146;2022-11-15T04:02:20;14.65;;;9.80;;
43345;SDS011;28937;51.160;4.146;2022-11-15T04:04:45;10.82;;;8.57;;
43345;SDS011;28937;51.160;4.146;2022-11-15T04:07:11;14.55;;;8.93;;
43345;SDS011;28937;51.160;4.146;2022-11-15T04:09:37;15.35;;;8.85;;
43345;SDS011;28937;51.160;4.146;2022-11-15T04:12:23;14.20;;;9.02;;
43345;SDS011;28937;51.160;4.146;2022-11-15T04:14:56;14.85;;;9.35;;
43345;SDS011;28937;51.160;4.146;2022-11-15T04:17:35;14.32;;;9.45;;
43345;SDS011;28937;51.160;4.146;2022-11-15T04:20:03;10.88;;;8.38;;
43345;SDS011;28937;51.160;4.146;2022-11-15T04:22:47;11.55;;;8.23;;
43345;SDS011;28937;51.160;4.146;2022-11-15T04:25:32;9.93;;;8.15;;
43345;SDS011;28937;51.160;4.146;2022-11-15T04:27:57;15.23;;;8.15;;
43345;SDS011;28937;51.160;4.146;2022-11-15T04:30:23;11.93;;;7.85;;
43345;SDS011;28937;51.160;4.146;2022-11-15T04:32:48;14.07;;;8.10;;
43345;SDS011;28937;51.160;4.146;2022-11-15T04:35:14;10.93;;;7.90;;
43345;SDS011;28937;51.160;4.146;2022-11-15T04:37:39;12.65;;;7.78;;
43345;SDS011;28937;51.160;4.146;2022-11-15T04:40:05;13.98;;;7.75;;
43345;SDS011;28937;51.160;4.146;2022-11-15T04:42:31;11.45;;;8.02;;
43345;SDS011;28937;51.160;4.146;2022-11-15T04:44:57;10.70;;;7.35;;
43345;SDS011;28937;51.160;4.146;2022-11-15T04:47:22;15.13;;;8.20;;
43345;SDS011;28937;51.160;4.146;2022-11-15T04:49:48;12.00;;;8.48;;
43345;SDS011;28937;51.160;4.146;2022-11-15T04:52:13;9.82;;;6.70;;
43345;SDS011;28937;51.160;4.146;2022-11-15T04:54:39;9.75;;;7.43;;
43345;SDS011;28937;51.160;4.146;2022-11-15T04:57:06;12.27;;;7.32;;
43345;SDS011;28937;51.160;4.146;2022-11-15T04:59:32;12.48;;;7.40;;
43345;SDS011;28937;51.160;4.146;2022-11-15T05:01:58;15.45;;;7.65;;
43345;SDS011;28937;51.160;4.146;2022-11-15T05:04:23;11.00;;;6.72;;
43345;SDS011;28937;51.160;4.146;2022-11-15T05:06:50;13.05;;;7.07;;
43345;SDS011;28937;51.160;4.146;2022-11-15T05:09:16;11.07;;;6.45;;
43345;SDS011;28937;51.160;4.146;2022-11-15T05:11:43;8.65;;;6.22;;
43345;SDS011;28937;51.160;4.146;2022-11-15T05:14:09;13.73;;;6.40;;
43345;SDS011;28937;51.160;4.146;2022-11-15T05:16:35;10.30;;;6.60;;
43345;SDS011;28937;51.160;4.146;2022-11-15T05:19:01;7.72;;;5.88;;
43345;SDS011;28937;51.160;4.146;2022-11-15T05:21:26;10.93;;;5.43;;
43345;SDS011;28937;51.160;4.146;2022-11-15T05:23:52;6.35;;;4.85;;
43345;SDS011;28937;51.160;4.146;2022-11-15T05:26:18;9.82;;;5.78;;
43345;SDS011;28937;51.160;4.146;2022-11-15T05:28:43;12.50;;;5.68;;
43345;SDS011;28937;51.160;4.146;2022-11-15T05:31:10;8.65;;;5.60;;
43345;SDS011;28937;51.160;4.146;2022-11-15T05:33:37;7.53;;;5.38;;
43345;SDS011;28937;51.160;4.146;2022-11-15T05:36:09;9.90;;;5.65;;
43345;SDS011;28937;51.160;4.146;2022-11-15T05:38:40;10.65;;;5.93;;
43345;SDS011;28937;51.160;4.146;2022-11-15T05:41:06;10.00;;;5.68;;
43345;SDS011;28937;51.160;4.146;2022-11-15T05:43:33;9.10;;;5.35;;
43345;SDS011;28937;51.160;4.146;2022-11-15T05:46:01;12.77;;;5.57;;
43345;SDS011;28937;51.160;4.146;2022-11-15T05:48:29;9.95;;;4.82;;
43345;SDS011;28937;51.160;4.146;2022-11-15T05:50:54;11.38;;;5.97;;
43345;SDS011;28937;51.160;4.146;2022-11-15T05:53:21;9.10;;;4.93;;
43345;SDS011;28937;51.160;4.146;2022-11-15T05:55:48;13.23;;;4.70;;
43345;SDS011;28937;51.160;4.146;2022-11-15T05:58:14;9.57;;;4.45;;
43345;SDS011;28937;51.160;4.146;2022-11-15T06:00:39;7.82;;;4.75;;
43345;SDS011;28937;51.160;4.146;2022-11-15T06:03:08;9.40;;;4.60;;
43345;SDS011;28937;51.160;4.146;2022-11-15T06:05:33;6.97;;;4.20;;
43345;SDS011;28937;51.160;4.146;2022-11-15T06:07:59;5.82;;;3.70;;
43345;SDS011;28937;51.160;4.146;2022-11-15T06:10:25;7.18;;;3.72;;
43345;SDS011;28937;51.160;4.146;2022-11-15T06:12:58;7.10;;;3.80;;
43345;SDS011;28937;51.160;4.146;2022-11-15T06:15:27;7.95;;;3.92;;
43345;SDS011;28937;51.160;4.146;2022-11-15T06:17:56;6.43;;;3.03;;
43345;SDS011;28937;51.160;4.146;2022-11-15T06:20:22;6.38;;;2.78;;
43345;SDS011;28937;51.160;4.146;2022-11-15T06:22:49;5.15;;;3.03;;
43345;SDS011;28937;51.160;4.146;2022-11-15T06:25:14;6.38;;;2.55;;
43345;SDS011;28937;51.160;4.146;2022-11-15T06:27:40;9.40;;;3.00;;
43345;SDS011;28937;51.160;4.146;2022-11-15T06:30:05;6.75;;;2.88;;
43345;SDS011;28937;51.160;4.146;2022-11-15T06:32:31;6.13;;;2.55;;
43345;SDS011;28937;51.160;4.146;2022-11-15T06:34:57;5.75;;;2.55;;
43345;SDS011;28937;51.160;4.146;2022-11-15T06:37:22;5.05;;;2.13;;
43345;SDS011;28937;51.160;4.146;2022-11-15T06:39:48;5.28;;;2.00;;
43345;SDS011;28937;51.160;4.146;2022-11-15T06:42:13;12.13;;;3.10;;
43345;SDS011;28937;51.160;4.146;2022-11-15T06:44:39;5.60;;;2.70;;
43345;SDS011;28937;51.160;4.146;2022-11-15T06:47:05;8.25;;;2.60;;
43345;SDS011;28937;51.160;4.146;2022-11-15T06:49:30;10.35;;;2.92;;
43345;SDS011;28937;51.160;4.146;2022-11-15T06:51:56;7.88;;;2.83;;
43345;SDS011;28937;51.160;4.146;2022-11-15T06:54:21;6.78;;;2.90;;
43345;SDS011;28937;51.160;4.146;2022-11-15T06:56:47;9.27;;;2.30;;
43345;SDS011;28937;51.160;4.146;2022-11-15T06:59:12;8.13;;;2.35;;
43345;SDS011;28937;51.160;4.146;2022-11-15T07:01:38;6.15;;;2.72;;
43345;SDS011;28937;51.160;4.146;2022-11-15T07:04:04;6.55;;;2.38;;
43345;SDS011;28937;51.160;4.146;2022-11-15T07:06:29;9.38;;;3.25;;
43345;SDS011;28937;51.160;4.146;2022-11-15T07:08:55;6.40;;;2.70;;
43345;SDS011;28937;51.160;4.146;2022-11-15T07:11:20;6.63;;;3.22;;
43345;SDS011;28937;51.160;4.146;2022-11-15T07:13:46;6.47;;;2.97;;
43345;SDS011;28937;51.160;4.146;2022-11-15T07:16:11;5.10;;;3.00;;
43345;SDS011;28937;51.160;4.146;2022-11-15T07:18:37;6.10;;;3.30;;
43345;SDS011;28937;51.160;4.146;2022-11-15T07:21:05;6.75;;;2.78;;
43345;SDS011;28937;51.160;4.146;2022-11-15T07:23:32;17.48;;;7.75;;
43345;SDS011;28937;51.160;4.146;2022-11-15T07:25:58;10.23;;;4.00;;
43345;SDS011;28937;51.160;4.146;2022-11-15T07:28:25;4.75;;;2.58;;
43345;SDS011;28937;51.160;4.146;2022-11-15T07:30:51;8.07;;;2.45;;
43345;SDS011;28937;51.160;4.146;2022-11-15T07:33:16;9.27;;;2.38;;
43345;SDS011;28937;51.160;4.146;2022-11-15T07:35:42;10.98;;;1.88;;
43345;SDS011;28937;51.160;4.146;2022-11-15T07:38:08;11.70;;;2.97;;
43345;SDS011;28937;51.160;4.146;2022-11-15T07:40:34;8.68;;;2.13;;
43345;SDS011;28937;51.160;4.146;2022-11-15T07:43:03;6.43;;;2.78;;
43345;SDS011;28937;51.160;4.146;2022-11-15T07:45:31;6.60;;;2.50;;
43345;SDS011;28937;51.160;4.146;2022-11-15T07:47:58;11.40;;;3.08;;
43345;SDS011;28937;51.160;4.146;2022-11-15T07:50:25;7.80;;;3.47;;
43345;SDS011;28937;51.160;4.146;2022-11-15T07:52:55;11.23;;;3.35;;
43345;SDS011;28937;51.160;4.146;2022-11-15T07:55:22;9.07;;;3.33;;
43345;SDS011;28937;51.160;4.146;2022-11-15T07:57:48;10.32;;;3.00;;
43345;SDS011;28937;51.160;4.146;2022-11-15T08:00:14;9.95;;;3.65;;
43345;SDS011;28937;51.160;4.146;2022-11-15T08:02:40;5.80;;;3.00;;
43345;SDS011;28937;51.160;4.146;2022-11-15T08:05:06;8.95;;;2.83;;
43345;SDS011;28937;51.160;4.146;2022-11-15T08:07:32;6.47;;;2.95;;
43345;SDS011;28937;51.160;4.146;2022-11-15T08:09:57;8.88;;;1.92;;
43345;SDS011;28937;51.160;4.146;2022-11-15T08:12:23;5.85;;;2.75;;
43345;SDS011;28937;51.160;4.146;2022-11-15T08:14:49;9.70;;;3.05;;
43345;SDS011;28937;51.160;4.146;2022-11-15T08:17:15;7.38;;;2.45;;
43345;SDS011;28937;51.160;4.146;2022-11-15T08:19:40;8.32;;;3.25;;
43345;SDS011;28937;51.160;4.146;2022-11-15T08:22:06;8.05;;;1.90;;
43345;SDS011;28937;51.160;4.146;2022-11-15T08:24:32;7.18;;;2.47;;
43345;SDS011;28937;51.160;4.146;2022-11-15T08:26:59;4.82;;;2.00;;
43345;SDS011;28937;51.160;4.146;2022-11-15T08:29:24;6.18;;;2.03;;
43345;SDS011;28937;51.160;4.146;2022-11-15T08:31:50;5.57;;;2.00;;
43345;SDS011;28937;51.160;4.146;2022-11-15T08:34:17;4.63;;;2.17;;
43345;SDS011;28937;51.160;4.146;2022-11-15T08:36:42;5.95;;;2.08;;
43345;SDS011;28937;51.160;4.146;2022-11-15T08:39:10;5.95;;;2.03;;
43345;SDS011;28937;51.160;4.146;2022-11-15T08:41:37;5.38;;;2.30;;
43345;SDS011;28937;51.160;4.146;2022-11-15T08:44:03;6.15;;;1.70;;
43345;SDS011;28937;51.160;4.146;2022-11-15T08:46:28;3.92;;;1.30;;
43345;SDS011;28937;51.160;4.146;2022-11-15T08:48:54;3.95;;;1.98;;
43345;SDS011;28937;51.160;4.146;2022-11-15T08:51:19;4.63;;;2.10;;
43345;SDS011;28937;51.160;4.146;2022-11-15T08:53:45;6.85;;;1.60;;
43345;SDS011;28937;51.160;4.146;2022-11-15T08:56:11;6.20;;;1.80;;
43345;SDS011;28937;51.160;4.146;2022-11-15T08:58:38;4.88;;;1.58;;
43345;SDS011;28937;51.160;4.146;2022-11-15T09:01:04;6.78;;;1.83;;
43345;SDS011;28937;51.160;4.146;2022-11-15T09:03:30;2.88;;;1.40;;
43345;SDS011;28937;51.160;4.146;2022-11-15T09:05:56;3.30;;;1.42;;
43345;SDS011;28937;51.160;4.146;2022-11-15T09:08:23;5.03;;;1.50;;
43345;SDS011;28937;51.160;4.146;2022-11-15T09:10:50;6.35;;;1.20;;
43345;SDS011;28937;51.160;4.146;2022-11-15T09:13:16;5.85;;;1.45;;
43345;SDS011;28937;51.160;4.146;2022-11-15T09:15:42;4.50;;;1.25;;
43345;SDS011;28937;51.160;4.146;2022-11-15T09:18:07;5.90;;;1.50;;
43345;SDS011;28937;51.160;4.146;2022-11-15T09:20:33;5.70;;;1.27;;
43345;SDS011;28937;51.160;4.146;2022-11-15T09:22:59;5.78;;;1.67;;
43345;SDS011;28937;51.160;4.146;2022-11-15T09:25:26;8.98;;;1.65;;
43345;SDS011;28937;51.160;4.146;2022-11-15T09:27:52;6.20;;;1.30;;
43345;SDS011;28937;51.160;4.146;2022-11-15T09:30:17;8.13;;;1.58;;
43345;SDS011;28937;51.160;4.146;2022-11-15T09:32:43;7.43;;;1.73;;
43345;SDS011;28937;51.160;4.146;2022-11-15T09:35:08;6.88;;;1.58;;
43345;SDS011;28937;51.160;4.146;2022-11-15T09:37:34;7.93;;;1.45;;
43345;SDS011;28937;51.160;4.146;2022-11-15T09:39:59;6.63;;;1.40;;
43345;SDS011;28937;51.160;4.146;2022-11-15T09:42:29;6.57;;;1.17;;
43345;SDS011;28937;51.160;4.146;2022-11-15T09:48:19;3.58;;;0.98;;
43345;SDS011;28937;51.160;4.146;2022-11-15T09:51:09;6.85;;;1.52;;
43345;SDS011;28937;51.160;4.146;2022-11-15T09:56:24;7.05;;;1.23;;
43345;SDS011;28937;51.160;4.146;2022-11-15T10:04:22;6.10;;;1.17;;
43345;SDS011;28937;51.160;4.146;2022-11-15T10:06:52;5.75;;;1.73;;
43345;SDS011;28937;51.160;4.146;2022-11-15T10:09:30;7.20;;;0.98;;
43345;SDS011;28937;51.160;4.146;2022-11-15T10:12:03;5.25;;;1.17;;
43345;SDS011;28937;51.160;4.146;2022-11-15T10:14:29;5.60;;;1.42;;
43345;SDS011;28937;51.160;4.146;2022-11-15T10:17:06;5.43;;;1.20;;
43345;SDS011;28937;51.160;4.146;2022-11-15T10:22:24;6.45;;;1.40;;
43345;SDS011;28937;51.160;4.146;2022-11-15T10:27:33;6.03;;;1.05;;
43345;SDS011;28937;51.160;4.146;2022-11-15T10:29:59;10.18;;;1.30;;
43345;SDS011;28937;51.160;4.146;2022-11-15T10:32:25;8.02;;;1.15;;
43345;SDS011;28937;51.160;4.146;2022-11-15T10:34:51;4.70;;;0.90;;
43345;SDS011;28937;51.160;4.146;2022-11-15T10:37:30;7.55;;;1.58;;
43345;SDS011;28937;51.160;4.146;2022-11-15T10:40:02;4.70;;;1.00;;
43345;SDS011;28937;51.160;4.146;2022-11-15T10:42:40;6.85;;;1.30;;
43345;SDS011;28937;51.160;4.146;2022-11-15T10:45:25;6.55;;;1.02;;
43345;SDS011;28937;51.160;4.146;2022-11-15T10:47:53;6.40;;;1.13;;
43345;SDS011;28937;51.160;4.146;2022-11-15T10:50:26;5.55;;;0.90;;
43345;SDS011;28937;51.160;4.146;2022-11-15T10:52:53;5.50;;;0.90;;
43345;SDS011;28937;51.160;4.146;2022-11-15T10:55:21;4.90;;;1.10;;
43345;SDS011;28937;51.160;4.146;2022-11-15T10:57:51;5.15;;;1.20;;
43345;SDS011;28937;51.160;4.146;2022-11-15T11:03:06;7.45;;;1.10;;
43345;SDS011;28937;51.160;4.146;2022-11-15T11:05:45;9.68;;;1.42;;
43345;SDS011;28937;51.160;4.146;2022-11-15T11:10:39;4.10;;;0.80;;
43345;SDS011;28937;51.160;4.146;2022-11-15T11:13:26;7.20;;;1.13;;
43345;SDS011;28937;51.160;4.146;2022-11-15T11:21:24;6.50;;;1.30;;
43345;SDS011;28937;51.160;4.146;2022-11-15T11:24:55;6.28;;;1.05;;
43345;SDS011;28937;51.160;4.146;2022-11-15T11:30:04;3.55;;;0.65;;
43345;SDS011;28937;51.160;4.146;2022-11-15T11:35:30;6.70;;;1.15;;
43345;SDS011;28937;51.160;4.146;2022-11-15T11:41:07;7.55;;;1.45;;
43345;SDS011;28937;51.160;4.146;2022-11-15T11:44:08;4.97;;;1.08;;
43345;SDS011;28937;51.160;4.146;2022-11-15T11:52:23;12.50;;;1.73;;
43345;SDS011;28937;51.160;4.146;2022-11-15T11:59:59;6.03;;;2.67;;
43345;SDS011;28937;51.160;4.146;2022-11-15T12:02:38;7.03;;;2.55;;
43345;SDS011;28937;51.160;4.146;2022-11-15T12:05:11;6.47;;;2.40;;
43345;SDS011;28937;51.160;4.146;2022-11-15T12:07:43;9.15;;;2.50;;
43345;SDS011;28937;51.160;4.146;2022-11-15T12:10:15;9.25;;;2.40;;
43345;SDS011;28937;51.160;4.146;2022-11-15T12:18:47;6.53;;;1.95;;
43345;SDS011;28937;51.160;4.146;2022-11-15T12:21:17;6.53;;;1.67;;
43345;SDS011;28937;51.160;4.146;2022-11-15T12:23:50;8.38;;;1.95;;
43345;SDS011;28937;51.160;4.146;2022-11-15T12:26:24;7.93;;;2.10;;
43345;SDS011;28937;51.160;4.146;2022-11-15T12:28:53;11.65;;;2.17;;
43345;SDS011;28937;51.160;4.146;2022-11-15T12:31:24;9.80;;;1.92;;
43345;SDS011;28937;51.160;4.146;2022-11-15T12:33:55;12.68;;;1.90;;
43345;SDS011;28937;51.160;4.146;2022-11-15T12:41:34;11.82;;;1.55;;
43345;SDS011;28937;51.160;4.146;2022-11-15T12:44:02;9.38;;;1.35;;
43345;SDS011;28937;51.160;4.146;2022-11-15T12:48:56;9.88;;;1.63;;
43345;SDS011;28937;51.160;4.146;2022-11-15T12:51:22;11.55;;;1.70;;
43345;SDS011;28937;51.160;4.146;2022-11-15T13:12:51;12.13;;;1.55;;
43345;SDS011;28937;51.160;4.146;2022-11-15T13:15:32;4.50;;;1.52;;
43345;SDS011;28937;51.160;4.146;2022-11-15T13:18:19;4.37;;;1.70;;
43345;SDS011;28937;51.160;4.146;2022-11-15T13:21:03;6.20;;;1.70;;
43345;SDS011;28937;51.160;4.146;2022-11-15T13:24:01;7.03;;;2.10;;
43345;SDS011;28937;51.160;4.146;2022-11-15T13:26:27;7.15;;;1.70;;
43345;SDS011;28937;51.160;4.146;2022-11-15T13:28:53;4.95;;;1.25;;
43345;SDS011;28937;51.160;4.146;2022-11-15T13:34:01;3.88;;;1.00;;
43345;SDS011;28937;51.160;4.146;2022-11-15T13:36:38;3.97;;;1.25;;
43345;SDS011;28937;51.160;4.146;2022-11-15T13:39:05;4.50;;;1.40;;
43345;SDS011;28937;51.160;4.146;2022-11-15T13:41:45;3.80;;;1.15;;
43345;SDS011;28937;51.160;4.146;2022-11-15T13:44:21;3.13;;;0.98;;
43345;SDS011;28937;51.160;4.146;2022-11-15T13:47:14;4.07;;;0.90;;
43345;SDS011;28937;51.160;4.146;2022-11-15T13:49:39;6.32;;;1.10;;
43345;SDS011;28937;51.160;4.146;2022-11-15T13:52:06;4.03;;;1.58;;
43345;SDS011;28937;51.160;4.146;2022-11-15T13:54:35;5.20;;;1.17;;
43345;SDS011;28937;51.160;4.146;2022-11-15T13:57:20;3.50;;;0.95;;
43345;SDS011;28937;51.160;4.146;2022-11-15T14:02:20;5.22;;;1.00;;
43345;SDS011;28937;51.160;4.146;2022-11-15T14:04:54;10.00;;;1.30;;
43345;SDS011;28937;51.160;4.146;2022-11-15T14:07:27;5.97;;;1.15;;
43345;SDS011;28937;51.160;4.146;2022-11-15T14:09:56;6.78;;;1.85;;
43345;SDS011;28937;51.160;4.146;2022-11-15T14:12:29;4.50;;;1.20;;
43345;SDS011;28937;51.160;4.146;2022-11-15T14:14:55;4.00;;;1.25;;
43345;SDS011;28937;51.160;4.146;2022-11-15T14:19:53;9.20;;;1.33;;
43345;SDS011;28937;51.160;4.146;2022-11-15T14:27:45;4.25;;;1.10;;
43345;SDS011;28937;51.160;4.146;2022-11-15T14:30:39;5.03;;;1.08;;
43345;SDS011;28937;51.160;4.146;2022-11-15T14:35:52;6.00;;;1.25;;
43345;SDS011;28937;51.160;4.146;2022-11-15T14:38:18;7.07;;;1.13;;
43345;SDS011;28937;51.160;4.146;2022-11-15T14:40:44;3.30;;;1.30;;
43345;SDS011;28937;51.160;4.146;2022-11-15T14:43:10;4.22;;;1.17;;
43345;SDS011;28937;51.160;4.146;2022-11-15T14:45:36;4.78;;;1.48;;
43345;SDS011;28937;51.160;4.146;2022-11-15T14:48:02;2.75;;;1.27;;
43345;SDS011;28937;51.160;4.146;2022-11-15T14:50:28;3.08;;;1.33;;
43345;SDS011;28937;51.160;4.146;2022-11-15T14:52:53;3.55;;;1.30;;
43345;SDS011;28937;51.160;4.146;2022-11-15T14:57:50;4.10;;;1.60;;
43345;SDS011;28937;51.160;4.146;2022-11-15T15:00:17;6.20;;;1.10;;
43345;SDS011;28937;51.160;4.146;2022-11-15T15:02:43;4.05;;;1.13;;
43345;SDS011;28937;51.160;4.146;2022-11-15T15:05:18;4.38;;;1.63;;
43345;SDS011;28937;51.160;4.146;2022-11-15T15:07:45;5.72;;;1.65;;
43345;SDS011;28937;51.160;4.146;2022-11-15T15:10:11;6.43;;;1.55;;
43345;SDS011;28937;51.160;4.146;2022-11-15T15:12:38;4.80;;;1.30;;
43345;SDS011;28937;51.160;4.146;2022-11-15T15:15:04;2.80;;;1.33;;
43345;SDS011;28937;51.160;4.146;2022-11-15T15:17:30;1.92;;;1.10;;
43345;SDS011;28937;51.160;4.146;2022-11-15T15:19:56;3.90;;;1.17;;
43345;SDS011;28937;51.160;4.146;2022-11-15T15:22:21;4.75;;;1.73;;
43345;SDS011;28937;51.160;4.146;2022-11-15T15:24:51;6.32;;;1.92;;
43345;SDS011;28937;51.160;4.146;2022-11-15T15:27:16;4.32;;;1.88;;
43345;SDS011;28937;51.160;4.146;2022-11-15T15:29:42;5.68;;;1.85;;
43345;SDS011;28937;51.160;4.146;2022-11-15T15:32:08;4.78;;;2.05;;
43345;SDS011;28937;51.160;4.146;2022-11-15T15:34:35;4.03;;;1.90;;
43345;SDS011;28937;51.160;4.146;2022-11-15T15:37:07;4.05;;;1.92;;
43345;SDS011;28937;51.160;4.146;2022-11-15T15:39:53;3.50;;;2.13;;
43345;SDS011;28937;51.160;4.146;2022-11-15T15:42:19;4.50;;;1.98;;
43345;SDS011;28937;51.160;4.146;2022-11-15T15:44:46;4.93;;;1.77;;
43345;SDS011;28937;51.160;4.146;2022-11-15T15:47:30;6.53;;;2.08;;
43345;SDS011;28937;51.160;4.146;2022-11-15T15:49:56;5.68;;;2.83;;
43345;SDS011;28937;51.160;4.146;2022-11-15T15:52:22;6.18;;;2.80;;
43345;SDS011;28937;51.160;4.146;2022-11-15T15:54:47;9.93;;;3.03;;
43345;SDS011;28937;51.160;4.146;2022-11-15T15:57:13;10.85;;;4.13;;
43345;SDS011;28937;51.160;4.146;2022-11-15T15:59:40;6.88;;;3.00;;
43345;SDS011;28937;51.160;4.146;2022-11-15T16:02:06;8.73;;;3.42;;
43345;SDS011;28937;51.160;4.146;2022-11-15T16:04:34;7.72;;;2.90;;
43345;SDS011;28937;51.160;4.146;2022-11-15T16:07:00;3.47;;;2.10;;
43345;SDS011;28937;51.160;4.146;2022-11-15T16:09:27;4.55;;;2.42;;
43345;SDS011;28937;51.160;4.146;2022-11-15T16:12:11;3.72;;;2.25;;
43345;SDS011;28937;51.160;4.146;2022-11-15T16:14:37;10.10;;;2.83;;
43345;SDS011;28937;51.160;4.146;2022-11-15T16:17:03;3.75;;;2.10;;
43345;SDS011;28937;51.160;4.146;2022-11-15T16:19:28;8.48;;;2.15;;
43345;SDS011;28937;51.160;4.146;2022-11-15T16:21:54;4.25;;;2.55;;
43345;SDS011;28937;51.160;4.146;2022-11-15T16:24:20;7.18;;;2.55;;
43345;SDS011;28937;51.160;4.146;2022-11-15T16:26:46;7.13;;;2.20;;
43345;SDS011;28937;51.160;4.146;2022-11-15T16:29:13;3.90;;;2.58;;
43345;SDS011;28937;51.160;4.146;2022-11-15T16:31:38;9.77;;;3.63;;
43345;SDS011;28937;51.160;4.146;2022-11-15T16:34:04;5.45;;;2.75;;
43345;SDS011;28937;51.160;4.146;2022-11-15T16:36:32;6.10;;;2.40;;
43345;SDS011;28937;51.160;4.146;2022-11-15T16:38:59;3.83;;;2.20;;
43345;SDS011;28937;51.160;4.146;2022-11-15T16:41:25;4.63;;;1.98;;
43345;SDS011;28937;51.160;4.146;2022-11-15T16:43:50;21.02;;;4.13;;
43345;SDS011;28937;51.160;4.146;2022-11-15T16:46:17;13.13;;;3.30;;
43345;SDS011;28937;51.160;4.146;2022-11-15T16:48:45;4.28;;;2.30;;
43345;SDS011;28937;51.160;4.146;2022-11-15T16:51:11;9.35;;;2.85;;
43345;SDS011;28937;51.160;4.146;2022-11-15T16:53:36;7.18;;;2.13;;
43345;SDS011;28937;51.160;4.146;2022-11-15T16:56:02;4.82;;;2.20;;
43345;SDS011;28937;51.160;4.146;2022-11-15T16:58:28;9.65;;;2.97;;
43345;SDS011;28937;51.160;4.146;2022-11-15T17:00:54;7.68;;;2.75;;
43345;SDS011;28937;51.160;4.146;2022-11-15T17:03:21;6.80;;;3.08;;